createdAt,value
2018-05-24T00:01:45.257Z,93835.55
2018-05-24T00:04:12.815Z,93826.40
2018-05-24T00:06:40.379Z,93829.90
2018-05-24T00:09:07.913Z,93825.11
2018-05-24T00:11:35.474Z,93833.17
2018-05-24T00:14:03.062Z,93836.02
2018-05-24T00:16:30.632Z,93834.69
2018-05-24T00:18:58.174Z,93838.28
2018-05-24T00:21:25.851Z,93836.33
2018-05-24T00:23:53.535Z,93839.38
2018-05-24T00:26:21.073Z,93836.02
2018-05-24T00:28:48.645Z,93830.94
2018-05-24T00:31:16.216Z,93832.00
2018-05-24T00:33:43.769Z,93830.86
2018-05-24T00:36:11.860Z,93826.75
2018-05-24T00:38:39.403Z,93832.53
2018-05-24T00:41:06.944Z,93831.98
2018-05-24T00:43:34.514Z,93832.09
2018-05-24T00:46:02.076Z,93828.19
2018-05-24T00:48:29.629Z,93826.89
2018-05-24T00:50:57.237Z,93828.05
2018-05-24T00:53:24.789Z,93825.77
2018-05-24T00:55:52.342Z,93828.03
2018-05-24T00:58:19.924Z,93826.28
2018-05-24T01:00:47.497Z,93823.50
2018-05-24T01:03:15.050Z,93820.69
2018-05-24T01:05:42.984Z,93824.22
2018-05-24T01:08:10.555Z,93821.65
2018-05-24T01:10:38.117Z,93814.52
2018-05-24T01:13:05.900Z,93811.58
2018-05-24T01:15:33.456Z,93813.63
2018-05-24T01:18:01.002Z,93815.86
2018-05-24T01:20:28.582Z,93812.09
2018-05-24T01:22:56.148Z,93805.30
2018-05-24T01:25:23.705Z,93802.43
2018-05-24T01:27:51.446Z,93805.47
2018-05-24T01:30:18.986Z,93800.98
2018-05-24T01:32:46.527Z,93794.72
2018-05-24T01:35:14.097Z,93790.64
2018-05-24T01:37:50.506Z,93783.92
2018-05-24T01:40:18.184Z,93785.64
2018-05-24T01:42:45.740Z,93780.84
2018-05-24T01:45:13.301Z,93780.84
2018-05-24T01:47:40.873Z,93779.17
2018-05-24T01:50:08.451Z,93776.50
2018-05-24T01:52:36.014Z,93775.23
2018-05-24T01:55:03.652Z,93775.02
2018-05-24T01:57:31.220Z,93774.33
2018-05-24T01:59:58.790Z,93776.24
2018-05-24T02:02:26.392Z,93781.06
2018-05-24T02:04:53.937Z,93782.54
2018-05-24T02:07:21.482Z,93778.89
2018-05-24T02:09:49.068Z,93777.23
2018-05-24T02:12:16.618Z,93777.03
2018-05-24T02:14:44.199Z,93775.26
2018-05-24T02:17:11.923Z,93777.69
2018-05-24T02:19:39.472Z,93777.15
2018-05-24T02:22:07.024Z,93776.80
2018-05-24T02:24:34.607Z,93777.56
2018-05-24T02:27:02.160Z,93775.84
2018-05-24T02:29:29.719Z,93776.26
2018-05-24T02:31:57.612Z,93775.84
2018-05-24T02:34:25.160Z,93779.14
2018-05-24T02:36:52.720Z,93772.27
2018-05-24T02:39:20.300Z,93773.94
2018-05-24T02:41:47.854Z,93772.67
2018-05-24T02:44:15.405Z,93778.15
2018-05-24T02:46:42.989Z,93775.17
2018-05-24T02:49:10.586Z,93775.92
2018-05-24T02:51:38.142Z,93774.15
2018-05-24T02:54:05.721Z,93778.94
2018-05-24T02:56:33.276Z,93780.61
2018-05-24T02:59:00.920Z,93778.59
2018-05-24T03:01:28.479Z,93783.63
2018-05-24T03:03:56.033Z,93784.20
2018-05-24T03:06:23.774Z,93777.84
2018-05-24T03:08:51.328Z,93785.09
2018-05-24T03:11:18.918Z,93785.53
2018-05-24T03:13:46.518Z,93791.08
2018-05-24T03:16:14.079Z,93790.61
2018-05-24T03:18:41.629Z,93788.48
2018-05-24T03:21:09.360Z,93790.67
2018-05-24T03:23:36.907Z,93784.42
2018-05-24T03:26:04.520Z,93779.44
2018-05-24T03:28:32.201Z,93779.41
2018-05-24T03:31:00.635Z,93782.54
2018-05-24T03:33:28.191Z,93779.87
2018-05-24T03:35:55.784Z,93780.02
2018-05-24T03:38:23.322Z,93779.88
2018-05-24T03:40:50.876Z,93783.44
2018-05-24T03:43:18.483Z,93789.41
2018-05-24T03:45:46.050Z,93789.13
2018-05-24T03:48:13.601Z,93780.37
2018-05-24T03:50:41.518Z,93787.22
2018-05-24T03:53:09.074Z,93786.40
2018-05-24T03:55:36.617Z,93788.86
2018-05-24T03:58:04.220Z,93795.00
2018-05-24T04:00:43.523Z,93801.12
2018-05-24T04:03:22.831Z,93802.42
2018-05-24T04:05:50.383Z,93804.41
2018-05-24T04:08:17.932Z,93802.38
2018-05-24T04:10:46.759Z,93796.61
2018-05-24T04:13:14.303Z,93801.58
2018-05-24T04:15:41.849Z,93804.28
2018-05-24T04:18:09.574Z,93801.50
2018-05-24T04:20:37.122Z,93803.55
2018-05-24T04:23:04.677Z,93808.00
2018-05-24T04:25:32.414Z,93805.18
2018-05-24T04:27:59.967Z,93804.62
2018-05-24T04:30:27.518Z,93794.33
2018-05-24T04:32:55.124Z,93799.08
2018-05-24T04:35:22.668Z,93799.65
2018-05-24T04:37:50.211Z,93797.98
2018-05-24T04:40:17.937Z,93800.27
2018-05-24T04:42:45.490Z,93805.02
2018-05-24T04:45:13.052Z,93806.15
2018-05-24T04:47:40.667Z,93802.20
2018-05-24T04:50:08.230Z,93799.60
2018-05-24T04:52:35.804Z,93797.97
2018-05-24T04:55:03.390Z,93796.67
2018-05-24T04:57:30.937Z,93796.44
2018-05-24T04:59:58.484Z,93795.27
2018-05-24T05:02:26.080Z,93802.56
2018-05-24T05:04:53.631Z,93794.80
2018-05-24T05:07:21.191Z,93798.97
2018-05-24T05:09:49.132Z,93795.83
2018-05-24T05:12:16.693Z,93793.08
2018-05-24T05:14:44.328Z,93785.67
2018-05-24T05:17:12.007Z,93791.38
2018-05-24T05:19:39.619Z,93785.52
2018-05-24T05:22:07.137Z,93781.55
2018-05-24T05:24:35.270Z,93784.84
2018-05-24T05:27:02.837Z,93788.59
2018-05-24T05:29:30.384Z,93786.03
2018-05-24T05:31:57.993Z,93788.36
2018-05-24T05:34:25.562Z,93781.87
2018-05-24T05:36:53.107Z,93780.63
2018-05-24T05:39:20.692Z,93781.98
2018-05-24T05:41:48.248Z,93787.31
2018-05-24T05:44:15.812Z,93781.14
2018-05-24T05:46:43.397Z,93782.98
2018-05-24T05:49:10.954Z,93774.73
2018-05-24T05:51:38.513Z,93784.77
2018-05-24T05:54:06.276Z,93787.64
2018-05-24T05:56:33.833Z,93782.26
2018-05-24T05:59:01.371Z,93782.46
2018-05-24T06:01:28.930Z,93779.21
2018-05-24T06:03:56.471Z,93777.80
2018-05-24T06:06:24.057Z,93783.09
2018-05-24T06:08:51.618Z,93780.87
2018-05-24T06:11:19.170Z,93785.97
2018-05-24T06:13:46.930Z,93793.45
2018-05-24T06:16:14.464Z,93790.98
2018-05-24T06:18:42.017Z,93798.83
2018-05-24T06:21:09.621Z,93800.92
2018-05-24T06:23:37.180Z,93804.53
2018-05-24T06:26:04.745Z,93805.14
2018-05-24T06:28:32.395Z,93814.50
2018-05-24T06:30:59.893Z,93816.89
2018-05-24T06:33:27.437Z,93816.91
2018-05-24T06:35:55.350Z,93822.59
2018-05-24T06:38:22.926Z,93824.69
2018-05-24T06:40:50.467Z,93823.39
2018-05-24T06:43:18.198Z,93819.50
2018-05-24T06:45:45.756Z,93825.47
2018-05-24T06:48:13.312Z,93828.30
2018-05-24T06:50:41.008Z,93829.86
2018-05-24T06:53:08.573Z,93822.13
2018-05-24T06:55:36.124Z,93823.62
2018-05-24T06:58:03.735Z,93822.09
2018-05-24T07:00:31.291Z,93815.78
2018-05-24T07:02:58.849Z,93818.84
2018-05-24T07:05:26.569Z,93827.19
2018-05-24T07:07:54.108Z,93824.06
2018-05-24T07:10:21.659Z,93832.53
2018-05-24T07:12:49.256Z,93821.41
2018-05-24T07:15:16.800Z,93826.95
2018-05-24T07:17:44.358Z,93823.33
2018-05-24T07:20:12.296Z,93827.15
2018-05-24T07:22:39.839Z,93834.09
2018-05-24T07:25:07.387Z,93831.00
2018-05-24T07:27:34.986Z,93826.59
2018-05-24T07:30:02.537Z,93827.40
2018-05-24T07:32:30.084Z,93829.72
2018-05-24T07:34:57.671Z,93828.70
2018-05-24T07:37:25.218Z,93824.55
2018-05-24T07:39:52.772Z,93827.77
2018-05-24T07:42:20.339Z,93826.25
2018-05-24T07:44:47.886Z,93829.66
2018-05-24T07:47:15.433Z,93825.77
2018-05-24T07:49:43.205Z,93821.30
2018-05-24T07:52:10.764Z,93817.92
2018-05-24T07:54:38.319Z,93826.30
2018-05-24T07:57:05.912Z,93828.00
2018-05-24T07:59:33.467Z,93820.72
2018-05-24T08:02:01.013Z,93815.93
2018-05-24T08:04:28.587Z,93815.42
2018-05-24T08:06:56.149Z,93817.62
2018-05-24T08:09:24.053Z,93811.53
2018-05-24T08:11:51.807Z,93811.64
2018-05-24T08:14:19.360Z,93806.66
2018-05-24T08:16:46.938Z,93805.30
2018-05-24T08:19:14.618Z,93804.81
2018-05-24T08:21:42.172Z,93805.26
2018-05-24T08:24:09.726Z,93808.50
2018-05-24T08:26:37.634Z,93802.34
2018-05-24T08:29:05.214Z,93799.83
2018-05-24T08:31:32.760Z,93793.05
2018-05-24T08:34:00.344Z,93790.32
2018-05-24T08:36:27.904Z,93802.44
2018-05-24T08:38:55.444Z,93800.70
2018-05-24T08:41:23.155Z,93795.61
2018-05-24T08:43:50.719Z,93797.97
2018-05-24T08:46:18.269Z,93798.53
2018-05-24T08:48:46.034Z,93790.38
2018-05-24T08:51:13.573Z,93799.02
2018-05-24T08:53:41.119Z,93803.98
2018-05-24T08:56:08.703Z,93797.94
2018-05-24T08:58:36.249Z,93797.80
2018-05-24T09:01:03.832Z,93797.25
2018-05-24T09:03:31.565Z,93798.80
2018-05-24T09:05:59.116Z,93798.18
2018-05-24T09:08:26.658Z,93794.34
2018-05-24T09:10:54.249Z,93796.11
2018-05-24T09:13:21.830Z,93789.37
2018-05-24T09:15:49.377Z,93787.70
2018-05-24T09:18:17.052Z,93780.70
2018-05-24T09:20:44.597Z,93785.49
2018-05-24T09:23:12.158Z,93790.22
2018-05-24T09:25:39.890Z,93791.98
2018-05-24T09:28:07.502Z,93784.30
2018-05-24T09:30:35.091Z,93776.48
2018-05-24T09:33:02.693Z,93777.91
2018-05-24T09:35:30.274Z,93777.23
2018-05-24T09:37:57.830Z,93780.08
2018-05-24T09:40:25.503Z,93776.52
2018-05-24T09:42:53.053Z,93768.28
2018-05-24T09:45:20.605Z,93771.66
2018-05-24T09:47:48.529Z,93765.44
2018-05-24T09:50:16.089Z,93764.58
2018-05-24T09:52:43.637Z,93761.55
2018-05-24T09:55:11.373Z,93774.87
2018-05-24T09:57:39.043Z,93766.47
2018-05-24T10:00:06.628Z,93761.30
2018-05-24T10:02:34.186Z,93762.66
2018-05-24T10:05:01.766Z,93760.55
2018-05-24T10:07:29.372Z,93762.98
2018-05-24T10:09:56.958Z,93772.97
2018-05-24T10:12:24.528Z,93777.09
2018-05-24T10:14:52.257Z,93777.81
2018-05-24T10:17:19.814Z,93781.86
2018-05-24T10:19:47.402Z,93783.55
2018-05-24T10:22:15.013Z,93781.55
2018-05-24T10:24:42.558Z,93796.10
2018-05-24T10:27:10.108Z,93797.20
2018-05-24T10:29:37.774Z,93797.20
2018-05-24T10:32:05.334Z,93807.97
2018-05-24T10:34:32.888Z,93808.12
2018-05-24T10:37:00.464Z,93805.77
2018-05-24T10:39:28.021Z,93809.73
2018-05-24T10:41:55.567Z,93803.09
2018-05-24T10:44:23.205Z,93800.33
2018-05-24T10:46:50.749Z,93798.70
2018-05-24T10:49:18.288Z,93789.25
2018-05-24T10:51:45.883Z,93799.19
2018-05-24T10:54:13.540Z,93799.48
2018-05-24T10:56:41.074Z,93794.47
2018-05-24T10:59:08.649Z,93793.23
2018-05-24T11:01:36.236Z,93788.13
2018-05-24T11:04:03.826Z,93785.00
2018-05-24T11:06:31.576Z,93792.82
2018-05-24T11:08:59.121Z,93788.37
2018-05-24T11:11:26.674Z,93788.69
2018-05-24T11:13:54.255Z,93795.33
2018-05-24T11:16:22.065Z,93792.17
2018-05-24T11:18:49.627Z,93792.77
2018-05-24T11:21:17.345Z,93794.30
2018-05-24T11:23:44.912Z,93784.01
2018-05-24T11:26:12.467Z,93781.47
2018-05-24T11:28:40.369Z,93779.11
2018-05-24T11:31:07.939Z,93776.19
2018-05-24T11:33:35.506Z,93771.75
2018-05-24T11:36:03.248Z,93768.23
2018-05-24T11:38:30.820Z,93775.75
2018-05-24T11:40:58.373Z,93781.80
2018-05-24T11:43:26.511Z,93785.11
2018-05-24T11:45:54.010Z,93791.45
2018-05-24T11:48:21.557Z,93793.31
2018-05-24T11:50:49.132Z,93800.89
2018-05-24T11:53:16.672Z,93805.44
2018-05-24T11:55:44.218Z,93800.48
2018-05-24T11:58:11.808Z,93804.88
2018-05-24T12:00:39.377Z,93796.30
2018-05-24T12:03:06.924Z,93794.16
2018-05-24T12:05:34.640Z,93789.53
2018-05-24T12:08:02.185Z,93787.85
2018-05-24T12:10:29.729Z,93784.00
2018-05-24T12:12:57.652Z,93778.31
2018-05-24T12:15:25.209Z,93774.82
2018-05-24T12:17:52.764Z,93759.23
2018-05-24T12:20:20.334Z,93769.80
2018-05-24T12:22:47.898Z,93766.90
2018-05-24T12:25:15.445Z,93750.05
2018-05-24T12:27:43.341Z,93742.16
2018-05-24T12:30:10.910Z,93730.67
2018-05-24T12:32:38.453Z,93735.96
2018-05-24T12:35:06.042Z,93729.34
2018-05-24T12:37:33.591Z,93731.39
2018-05-24T12:40:01.146Z,93736.28
2018-05-24T12:42:28.721Z,93746.97
2018-05-24T12:44:56.266Z,93743.49
2018-05-24T12:47:23.830Z,93754.14
2018-05-24T12:49:51.424Z,93759.88
2018-05-24T12:52:19.009Z,93757.78
2018-05-24T12:54:46.583Z,93766.45
2018-05-24T12:57:14.156Z,93767.17
2018-05-24T12:59:41.718Z,93770.28
2018-05-24T13:02:09.286Z,93777.81
2018-05-24T13:04:37.296Z,93773.69
2018-05-24T13:07:04.862Z,93775.50
2018-05-24T13:09:32.403Z,93776.80
2018-05-24T13:11:59.987Z,93781.45
2018-05-24T13:14:27.547Z,93781.67
2018-05-24T13:16:55.168Z,93775.52
2018-05-24T13:19:22.715Z,93782.55
2018-05-24T13:21:50.281Z,93781.35
2018-05-24T13:24:17.843Z,93777.03
2018-05-24T13:26:45.572Z,93776.02
2018-05-24T13:29:13.136Z,93767.68
2018-05-24T13:31:40.686Z,93771.70
2018-05-24T13:34:08.419Z,93765.63
2018-05-24T13:36:35.983Z,93762.12
2018-05-24T13:39:03.598Z,93763.16
2018-05-24T13:41:31.337Z,93759.34
2018-05-24T13:43:58.893Z,93753.92
2018-05-24T13:46:26.452Z,93749.72
2018-05-24T13:48:54.015Z,93743.07
2018-05-24T13:51:21.569Z,93739.12
2018-05-24T13:53:49.146Z,93739.04
2018-05-24T13:56:16.855Z,93742.81
2018-05-24T13:58:44.400Z,93739.58
2018-05-24T14:01:11.970Z,93756.02
2018-05-24T14:03:39.569Z,93744.05
2018-05-24T14:06:07.114Z,93751.25
2018-05-24T14:08:34.661Z,93730.99
2018-05-24T14:11:02.245Z,93740.73
2018-05-24T14:13:29.787Z,93741.80
2018-05-24T14:15:57.335Z,93733.00
2018-05-24T14:18:24.923Z,93724.33
2018-05-24T14:20:52.473Z,93724.25
2018-05-24T14:23:20.141Z,93718.30
2018-05-24T14:25:47.820Z,93719.64
2018-05-24T14:28:15.380Z,93719.93
2018-05-24T14:30:42.931Z,93715.92
2018-05-24T14:33:10.624Z,93703.59
2018-05-24T14:35:38.172Z,93705.57
2018-05-24T14:38:05.724Z,93694.06
2018-05-24T14:40:33.644Z,93679.06
2018-05-24T14:43:01.191Z,93676.19
2018-05-24T14:45:28.732Z,93669.79
2018-05-24T14:47:57.271Z,93665.82
2018-05-24T14:50:24.817Z,93661.30
2018-05-24T14:52:52.381Z,93650.97
2018-05-24T14:55:20.314Z,93645.52
2018-05-24T14:57:47.846Z,93650.09
2018-05-24T15:00:15.414Z,93644.95
2018-05-24T15:02:42.949Z,93645.89
2018-05-24T15:05:10.503Z,93645.02
2018-05-24T15:07:38.104Z,93651.13
2018-05-24T15:10:05.672Z,93652.66
2018-05-24T15:12:33.236Z,93648.25
2018-05-24T15:15:00.809Z,93653.34
2018-05-24T15:17:28.357Z,93659.05
2018-05-24T15:19:55.908Z,93659.92
2018-05-24T15:22:23.496Z,93655.98
2018-05-24T15:24:51.055Z,93660.16
2018-05-24T15:27:19.012Z,93661.72
2018-05-24T15:29:46.802Z,93662.50
2018-05-24T15:32:14.348Z,93654.03
2018-05-24T15:34:41.893Z,93652.09
2018-05-24T15:37:09.613Z,93651.64
2018-05-24T15:39:37.177Z,93649.47
2018-05-24T15:42:04.745Z,93653.64
2018-05-24T15:44:32.377Z,93660.81
2018-05-24T15:46:59.940Z,93663.19
2018-05-24T15:49:27.494Z,93668.73
2018-05-24T15:51:55.078Z,93661.89
2018-05-24T15:54:22.642Z,93655.16
2018-05-24T15:56:50.181Z,93660.04
2018-05-24T15:59:18.094Z,93658.35
2018-05-24T16:01:45.639Z,93659.52
2018-05-24T16:04:13.204Z,93664.29
2018-05-24T16:06:40.805Z,93659.80
2018-05-24T16:09:08.388Z,93652.16
2018-05-24T16:11:35.945Z,93654.88
2018-05-24T16:14:03.689Z,93660.95
2018-05-24T16:16:31.241Z,93668.58
2018-05-24T16:18:58.794Z,93670.11
2018-05-24T16:21:26.531Z,93673.23
2018-05-24T16:23:54.077Z,93674.72
2018-05-24T16:26:21.656Z,93672.79
2018-05-24T16:28:49.565Z,93675.52
2018-05-24T16:31:17.115Z,93679.45
2018-05-24T16:33:44.665Z,93685.48
2018-05-24T16:36:12.254Z,93695.38
2018-05-24T16:38:39.808Z,93706.39
2018-05-24T16:41:07.363Z,93712.98
2018-05-24T16:43:35.143Z,93714.30
2018-05-24T16:46:02.696Z,93719.91
2018-05-24T16:48:30.261Z,93722.86
2018-05-24T16:50:57.859Z,93726.44
2018-05-24T16:53:25.443Z,93732.50
2018-05-24T16:55:53.027Z,93739.27
2018-05-24T16:58:20.610Z,93737.61
2018-05-24T17:00:48.167Z,93738.63
2018-05-24T17:03:15.722Z,93737.31
2018-05-24T17:05:43.377Z,93737.92
2018-05-24T17:08:10.948Z,93738.91
2018-05-24T17:10:38.493Z,93740.37
2018-05-24T17:13:06.086Z,93733.32
2018-05-24T17:15:33.678Z,93740.34
2018-05-24T17:18:01.265Z,93737.17
2018-05-24T17:20:29.077Z,93736.45
2018-05-24T17:22:57.357Z,93736.99
2018-05-24T17:25:24.929Z,93734.55
2018-05-24T17:27:52.660Z,93733.95
2018-05-24T17:30:20.208Z,93737.73
2018-05-24T17:32:47.779Z,93744.84
2018-05-24T17:35:15.521Z,93737.24
2018-05-24T17:37:43.083Z,93740.31
2018-05-24T17:40:10.649Z,93734.55
2018-05-24T17:42:38.592Z,93737.09
2018-05-24T17:45:06.140Z,93740.49
2018-05-24T17:47:33.688Z,93748.69
2018-05-24T17:50:01.424Z,93744.92
2018-05-24T17:52:29.011Z,93757.81
2018-05-24T17:54:56.614Z,93759.14
2018-05-24T17:57:24.373Z,93759.55
2018-05-24T17:59:51.941Z,93751.30
2018-05-24T18:02:19.519Z,93760.88
2018-05-24T18:04:47.283Z,93758.95
2018-05-24T18:07:14.824Z,93766.87
2018-05-24T18:09:42.371Z,93777.36
2018-05-24T18:12:10.126Z,93772.34
2018-05-24T18:14:37.694Z,93770.36
2018-05-24T18:17:05.273Z,93770.06
2018-05-24T18:19:32.876Z,93769.67
2018-05-24T18:22:00.479Z,93762.88
2018-05-24T18:24:28.033Z,93766.39
2018-05-24T18:26:55.712Z,93761.91
2018-05-24T18:29:23.284Z,93762.17
2018-05-24T18:31:50.847Z,93762.75
2018-05-24T18:34:18.816Z,93771.14
2018-05-24T18:36:46.360Z,93772.20
2018-05-24T18:39:13.909Z,93781.55
2018-05-24T18:41:41.525Z,93783.42
2018-05-24T18:44:09.067Z,93784.22
2018-05-24T18:46:36.625Z,93789.07
2018-05-24T18:49:04.257Z,93785.59
2018-05-24T18:51:31.826Z,93790.50
2018-05-24T18:53:59.368Z,93792.41
2018-05-24T18:56:26.952Z,93799.81
2018-05-24T18:58:54.501Z,93798.61
2018-05-24T19:01:22.046Z,93796.45
2018-05-24T19:03:49.784Z,93791.34
2018-05-24T19:06:17.361Z,93788.02
2018-05-24T19:08:44.962Z,93789.17
2018-05-24T19:11:12.777Z,93793.38
2018-05-24T19:13:40.352Z,93792.34
2018-05-24T19:16:07.920Z,93787.33
2018-05-24T19:18:35.677Z,93791.36
2018-05-24T19:21:03.239Z,93781.20
2018-05-24T19:23:30.812Z,93788.41
2018-05-24T19:25:58.800Z,93783.22
2018-05-24T19:28:26.376Z,93779.25
2018-05-24T19:30:53.953Z,93776.30
2018-05-24T19:33:21.588Z,93774.98
2018-05-24T19:35:49.149Z,93781.19
2018-05-24T19:38:16.714Z,93788.80
2018-05-24T19:40:44.646Z,93785.56
2018-05-24T19:43:12.199Z,93780.36
2018-05-24T19:45:39.792Z,93772.09
2018-05-24T19:48:07.382Z,93770.34
2018-05-24T19:50:34.947Z,93768.64
2018-05-24T19:53:02.523Z,93762.33
2018-05-24T19:55:30.560Z,93755.09
2018-05-24T19:57:58.160Z,93754.93
2018-05-24T20:00:25.752Z,93755.68
2018-05-24T20:02:53.334Z,93756.19
2018-05-24T20:05:20.896Z,93758.03
2018-05-24T20:07:48.661Z,93758.21
2018-05-24T20:10:16.233Z,93753.67
2018-05-24T20:12:43.805Z,93752.69
2018-05-24T20:15:11.461Z,93752.09
2018-05-24T20:17:39.111Z,93758.01
2018-05-24T20:20:06.733Z,93760.69
2018-05-24T20:22:34.332Z,93766.08
2018-05-24T20:25:01.895Z,93771.12
2018-05-24T20:27:29.494Z,93773.55
2018-05-24T20:29:57.113Z,93776.05
2018-05-24T20:32:24.739Z,93775.98
2018-05-24T20:34:52.362Z,93776.23
2018-05-24T20:37:19.951Z,93776.03
2018-05-24T20:39:47.511Z,93773.20
2018-05-24T20:42:15.075Z,93768.38
2018-05-24T20:44:43.017Z,93767.73
2018-05-24T20:47:10.583Z,93772.07
2018-05-24T20:49:38.140Z,93775.67
2018-05-24T20:52:05.759Z,93778.66
2018-05-24T20:54:33.323Z,93790.89
2018-05-24T20:57:00.897Z,93788.52
2018-05-24T20:59:28.647Z,93788.05
2018-05-24T21:01:56.279Z,93787.88
2018-05-24T21:04:23.857Z,93790.30
2018-05-24T21:06:51.641Z,93792.12
2018-05-24T21:09:19.212Z,93789.52
2018-05-24T21:11:46.789Z,93795.06
2018-05-24T21:14:14.372Z,93799.58
2018-05-24T21:16:41.949Z,93799.52
2018-05-24T21:19:09.517Z,93800.84
2018-05-24T21:21:37.132Z,93789.95
2018-05-24T21:24:04.695Z,93792.72
2018-05-24T21:26:32.248Z,93794.07
2018-05-24T21:29:00.155Z,93796.97
2018-05-24T21:31:27.728Z,93789.47
2018-05-24T21:33:55.292Z,93786.94
2018-05-24T21:36:22.868Z,93793.98
2018-05-24T21:38:50.418Z,93796.91
2018-05-24T21:41:17.981Z,93790.64
2018-05-24T21:43:45.722Z,93796.15
2018-05-24T21:46:13.305Z,93788.27
2018-05-24T21:48:41.797Z,93782.80
2018-05-24T21:51:09.881Z,93784.98
2018-05-24T21:53:37.440Z,93791.79
2018-05-24T21:56:04.989Z,93787.84
2018-05-24T21:58:32.734Z,93781.84
2018-05-24T22:01:00.300Z,93783.10
2018-05-24T22:03:27.856Z,93784.84
2018-05-24T22:05:55.448Z,93777.06
2018-05-24T22:08:22.995Z,93772.67
2018-05-24T22:10:50.537Z,93772.36
2018-05-24T22:13:18.260Z,93766.25
2018-05-24T22:15:45.811Z,93769.88
2018-05-24T22:18:13.358Z,93765.54
2018-05-24T22:20:41.096Z,93761.88
2018-05-24T22:23:08.648Z,93761.59
2018-05-24T22:25:36.207Z,93759.29
2018-05-24T22:28:03.811Z,93754.80
2018-05-24T22:30:31.357Z,93758.06
2018-05-24T22:32:58.929Z,93760.76
2018-05-24T22:35:26.523Z,93763.08
2018-05-24T22:37:54.061Z,93751.30
2018-05-24T22:40:21.608Z,93749.60
2018-05-24T22:42:49.320Z,93755.20
2018-05-24T22:45:16.866Z,93749.60
2018-05-24T22:47:44.413Z,93753.53
2018-05-24T22:50:12.094Z,93753.41
2018-05-24T22:52:39.640Z,93745.94
2018-05-24T22:55:07.184Z,93745.53
2018-05-24T22:57:34.894Z,93745.44
2018-05-24T23:00:02.464Z,93753.88
2018-05-24T23:02:30.000Z,93750.05
2018-05-24T23:04:57.632Z,93752.30
2018-05-24T23:07:25.166Z,93754.70
2018-05-24T23:09:52.709Z,93754.52
2018-05-24T23:12:20.404Z,93750.97
2018-05-24T23:14:47.946Z,93750.37
2018-05-24T23:17:15.492Z,93744.94
2018-05-24T23:19:43.397Z,93752.91
2018-05-24T23:22:11.796Z,93747.84
2018-05-24T23:24:39.333Z,93749.67
2018-05-24T23:27:07.024Z,93749.73
2018-05-24T23:29:34.573Z,93752.30
2018-05-24T23:32:02.127Z,93750.50
2018-05-24T23:34:29.847Z,93747.15
2018-05-24T23:36:57.441Z,93751.16
2018-05-24T23:39:24.970Z,93748.28
2018-05-24T23:41:52.862Z,93751.29
2018-05-24T23:44:20.399Z,93746.89
2018-05-24T23:46:47.939Z,93748.25
2018-05-24T23:49:15.498Z,93744.45
2018-05-24T23:51:43.032Z,93743.95
2018-05-24T23:54:10.585Z,93740.79
2018-05-24T23:56:38.160Z,93743.31
2018-05-24T23:59:05.700Z,93737.88
